Time;durP1;ratioP1;P1;durP2;ratioP2;P2;SDS_P1;SDS_P2;PMS_P1;PMS_P2;Temp;Humidity;BMP_temperature;BMP_pressure;BME280_temperature;BME280_humidity;BME280_pressure;Samples;Min_cycle;Max_cycle;Signal;HPM_P1;HPM_P2
2023/03/09 00:00:45;;;;;;;2.60;1.98;;;14.60;61.60;;;;;;10464175;28;20513;-56
2023/03/09 00:05:58;;;;;;;4.10;1.73;;;14.60;61.50;;;;;;10432358;28;20503;-56
2023/03/09 00:10:58;;;;;;;2.80;1.70;;;14.50;61.40;;;;;;10429722;28;20048;-56
2023/03/09 00:16:18;;;;;;;2.90;2.13;;;14.50;61.40;;;;;;10449201;28;20484;-57
2023/03/09 00:21:40;;;;;;;3.22;2.10;;;14.50;61.40;;;;;;10432130;28;20036;-57
2023/03/09 00:26:47;;;;;;;2.83;1.98;;;14.50;61.60;;;;;;10448914;28;20029;-56
2023/03/09 00:31:48;;;;;;;3.92;1.85;;;14.50;61.50;;;;;;10449756;28;20116;-56
2023/03/09 00:36:49;;;;;;;2.92;1.73;;;14.50;61.60;;;;;;10431668;28;20368;-56
2023/03/09 00:41:50;;;;;;;2.45;1.60;;;14.40;61.50;;;;;;10448258;28;20116;-56
2023/03/09 00:46:50;;;;;;;2.40;1.77;;;14.40;61.60;;;;;;10449356;28;20017;-56
2023/03/09 00:51:51;;;;;;;3.20;2.10;;;14.40;61.50;;;;;;10449380;28;20021;-56
2023/03/09 00:56:52;;;;;;;2.47;2.08;;;14.40;61.40;;;;;;10449036;28;20097;-57
2023/03/09 01:01:52;;;;;;;3.97;2.38;;;14.40;61.50;;;;;;10447881;28;20028;-55
2023/03/09 01:06:54;;;;;;;2.42;1.58;;;14.40;61.50;;;;;;10446524;28;20124;-56
2023/03/09 01:11:55;;;;;;;2.78;1.67;;;14.40;61.60;;;;;;10447610;28;20100;-56
2023/03/09 01:16:56;;;;;;;2.90;2.45;;;14.40;61.50;;;;;;10446919;28;20029;-55
2023/03/09 01:21:57;;;;;;;2.83;2.05;;;14.30;61.40;;;;;;10448283;28;20027;-56
2023/03/09 01:26:57;;;;;;;3.72;2.17;;;14.30;61.30;;;;;;10446101;28;20021;-56
2023/03/09 01:31:58;;;;;;;2.90;2.22;;;14.30;61.40;;;;;;10446530;28;20109;-55
2023/03/09 01:36:59;;;;;;;2.88;1.98;;;14.30;61.40;;;;;;10429000;28;20045;-56
2023/03/09 01:41:59;;;;;;;3.08;2.13;;;14.30;61.30;;;;;;10439647;28;20123;-56
2023/03/09 01:47:00;;;;;;;2.90;1.98;;;14.20;61.10;;;;;;10446493;28;20031;-56
2023/03/09 01:52:30;;;;;;;3.08;2.28;;;14.20;61.20;;;;;;10444650;28;20045;-56
2023/03/09 01:57:42;;;;;;;3.08;2.15;;;14.20;61.20;;;;;;10440294;28;20059;-56
2023/03/09 02:02:58;;;;;;;3.53;2.10;;;14.20;61.30;;;;;;10445882;28;20461;-56
2023/03/09 02:08:00;;;;;;;3.20;2.28;;;14.20;61.30;;;;;;10442346;28;20123;-56
2023/03/09 02:13:08;;;;;;;2.63;1.88;;;14.20;61.10;;;;;;10428646;28;20029;-56
2023/03/09 02:18:09;;;;;;;2.55;1.98;;;14.20;61.20;;;;;;10444077;28;20032;-56
2023/03/09 02:23:37;;;;;;;3.50;2.13;;;14.20;61.10;;;;;;10443997;28;20686;-56
2023/03/09 02:28:38;;;;;;;3.08;1.90;;;14.20;61.00;;;;;;10443285;28;20021;-55
2023/03/09 02:33:38;;;;;;;2.85;2.17;;;14.10;61.00;;;;;;10444039;28;20025;-57
2023/03/09 02:38:39;;;;;;;3.70;2.42;;;14.10;61.00;;;;;;10445315;28;20104;-56
2023/03/09 02:43:53;;;;;;;3.10;2.38;;;14.10;61.10;;;;;;10449748;28;20545;-56
2023/03/09 02:48:55;;;;;;;3.58;2.47;;;14.10;61.00;;;;;;10444313;28;20037;-56
2023/03/09 02:53:55;;;;;;;3.60;2.85;;;14.10;60.70;;;;;;10447845;28;20040;-56
2023/03/09 02:58:56;;;;;;;3.80;2.40;;;14.00;60.60;;;;;;10452371;28;20100;-56
2023/03/09 03:03:57;;;;;;;4.57;3.00;;;14.00;60.60;;;;;;10452290;28;20119;-55
2023/03/09 03:08:57;;;;;;;4.25;3.30;;;14.00;60.70;;;;;;10450578;28;20372;-56
2023/03/09 03:13:59;;;;;;;3.47;2.40;;;14.00;60.80;;;;;;10449530;28;20092;-56
2023/03/09 03:19:00;;;;;;;4.35;2.67;;;14.00;60.60;;;;;;10449146;28;20541;-56
2023/03/09 03:24:01;;;;;;;3.60;2.55;;;14.00;60.80;;;;;;10448417;28;20135;-56
2023/03/09 03:29:02;;;;;;;4.15;3.15;;;14.00;60.70;;;;;;10448999;28;20056;-54
2023/03/09 03:34:03;;;;;;;3.30;2.25;;;14.00;60.60;;;;;;10448983;28;20445;-56
2023/03/09 03:39:05;;;;;;;3.42;2.53;;;14.00;60.60;;;;;;10447306;28;20052;-56
2023/03/09 03:44:06;;;;;;;3.67;2.28;;;14.00;60.70;;;;;;10447810;28;20025;-55
2023/03/09 03:49:06;;;;;;;2.58;2.15;;;14.10;60.40;;;;;;10437734;28;20029;-56
2023/03/09 03:54:07;;;;;;;3.50;2.65;;;14.30;60.70;;;;;;10458579;28;20484;-56
2023/03/09 03:59:08;;;;;;;4.05;2.88;;;14.60;59.30;;;;;;10446775;28;20028;-54
2023/03/09 04:04:09;;;;;;;4.15;3.20;;;14.90;58.00;;;;;;10446303;28;20048;-56
2023/03/09 04:09:10;;;;;;;3.75;2.70;;;15.10;57.30;;;;;;10447100;28;20045;-56
2023/03/09 04:14:10;;;;;;;2.58;1.90;;;15.30;56.90;;;;;;10447601;28;20339;-55
2023/03/09 04:19:11;;;;;;;2.42;1.88;;;15.40;56.50;;;;;;10445525;28;20052;-56
2023/03/09 04:24:12;;;;;;;3.05;1.80;;;15.60;56.10;;;;;;10447543;28;20104;-56
2023/03/09 04:29:12;;;;;;;3.10;2.20;;;15.70;55.80;;;;;;10446739;28;20052;-55
2023/03/09 04:34:13;;;;;;;3.33;2.15;;;15.90;55.50;;;;;;10445107;28;20477;-55
2023/03/09 04:39:14;;;;;;;2.70;2.13;;;16.00;55.30;;;;;;10445830;28;20017;-55
2023/03/09 04:44:14;;;;;;;2.55;1.30;;;16.10;55.00;;;;;;10445621;28;20023;-55
2023/03/09 04:49:15;;;;;;;3.50;2.75;;;16.20;54.90;;;;;;10428393;28;20275;-56
2023/03/09 04:54:16;;;;;;;2.28;1.58;;;16.30;54.70;;;;;;10445612;28;20224;-56
2023/03/09 04:59:16;;;;;;;2.50;1.65;;;16.40;54.30;;;;;;10444344;28;20544;-56
2023/03/09 05:04:17;;;;;;;2.47;1.70;;;16.50;54.10;;;;;;10426576;28;20175;-55
2023/03/09 05:09:18;;;;;;;2.08;1.65;;;16.60;53.90;;;;;;10445119;28;20096;-55
2023/03/09 05:14:19;;;;;;;2.63;1.67;;;16.70;53.60;;;;;;10443810;28;20670;-56
2023/03/09 05:19:20;;;;;;;2.85;1.73;;;16.70;53.60;;;;;;10443771;28;20036;-56
2023/03/09 05:24:21;;;;;;;1.88;1.40;;;16.70;53.90;;;;;;10442806;28;20096;-56
2023/03/09 05:29:22;;;;;;;2.47;1.73;;;16.70;53.80;;;;;;10444293;28;20029;-55
2023/03/09 05:34:22;;;;;;;1.95;1.65;;;16.80;53.70;;;;;;10442372;28;20029;-55
2023/03/09 05:39:23;;;;;;;1.88;1.55;;;16.80;53.40;;;;;;10438689;28;20017;-56
2023/03/09 05:44:24;;;;;;;3.38;2.03;;;16.90;53.40;;;;;;10442570;28;20392;-56
2023/03/09 05:49:30;;;;;;;7.40;2.17;;;16.80;53.60;;;;;;10440411;28;20120;-55
2023/03/09 05:54:31;;;;;;;6.20;2.92;;;16.90;53.90;;;;;;10438266;28;20128;-57
2023/03/09 05:59:32;;;;;;;3.35;1.50;;;17.00;55.10;;;;;;10441199;28;20453;-57
2023/03/09 06:04:33;;;;;;;5.28;2.47;;;17.00;55.80;;;;;;10441619;28;20650;-57
2023/03/09 06:09:34;;;;;;;6.90;2.40;;;17.00;56.80;;;;;;10441722;28;20073;-59
2023/03/09 06:14:34;;;;;;;5.35;2.20;;;16.90;57.60;;;;;;10442875;28;20116;-58
2023/03/09 06:19:35;;;;;;;8.07;3.30;;;16.80;57.50;;;;;;10439141;28;20122;-57
2023/03/09 06:24:36;;;;;;;9.93;2.80;;;16.80;58.10;;;;;;10436330;28;20126;-57
2023/03/09 06:29:37;;;;;;;9.60;2.85;;;16.80;58.50;;;;;;10423115;28;20454;-57
2023/03/09 06:34:37;;;;;;;12.65;3.20;;;16.60;57.70;;;;;;10441354;28;20064;-60
2023/03/09 06:39:39;;;;;;;8.85;3.30;;;16.50;57.50;;;;;;10432832;28;20021;-58
2023/03/09 06:44:42;;;;;;;13.43;3.53;;;16.30;57.90;;;;;;10443159;28;20112;-57
2023/03/09 06:49:43;;;;;;;9.57;3.38;;;16.50;57.40;;;;;;10457734;28;20524;-58
2023/03/09 06:54:44;;;;;;;7.82;3.78;;;16.40;57.20;;;;;;10444922;28;20120;-57
2023/03/09 06:59:45;;;;;;;8.35;3.78;;;16.30;56.80;;;;;;10441952;28;20022;-56
2023/03/09 07:04:46;;;;;;;6.22;3.58;;;16.20;56.70;;;;;;10442124;28;20096;-56
2023/03/09 07:09:46;;;;;;;6.03;3.08;;;16.30;56.60;;;;;;10441440;28;20053;-56
2023/03/09 07:14:47;;;;;;;7.47;2.97;;;16.30;56.40;;;;;;10441697;28;20060;-56
2023/03/09 07:19:48;;;;;;;11.70;4.05;;;16.30;56.50;;;;;;10440678;28;20040;-58
2023/03/09 07:24:48;;;;;;;12.30;4.22;;;16.20;57.30;;;;;;10433195;28;20035;-60
2023/03/09 07:29:49;;;;;;;10.23;3.40;;;16.20;57.80;;;;;;10445902;28;20023;-60
2023/03/09 07:34:50;;;;;;;7.93;3.65;;;16.20;58.50;;;;;;10447955;28;20154;-58
2023/03/09 07:39:50;;;;;;;8.25;3.63;;;16.10;58.80;;;;;;10450784;28;20033;-59
2023/03/09 07:44:51;;;;;;;9.35;3.90;;;16.10;59.50;;;;;;10441116;28;20555;-58
2023/03/09 07:49:52;;;;;;;9.50;3.63;;;16.10;60.10;;;;;;10436832;28;20030;-57
2023/03/09 07:54:53;;;;;;;8.70;3.55;;;16.00;60.00;;;;;;10427916;28;20120;-57
2023/03/09 07:59:56;;;;;;;5.35;2.83;;;15.90;60.10;;;;;;10432706;28;20024;-58
2023/03/09 08:04:57;;;;;;;7.10;3.47;;;16.00;59.90;;;;;;10442338;28;20484;-56
2023/03/09 08:09:58;;;;;;;6.68;3.50;;;15.90;59.70;;;;;;10446990;28;20052;-58
2023/03/09 08:14:58;;;;;;;8.73;3.75;;;15.90;59.70;;;;;;10447452;28;20116;-57
2023/03/09 08:19:59;;;;;;;7.50;3.72;;;16.00;59.60;;;;;;10442798;28;20037;-58
2023/03/09 08:25:00;;;;;;;5.45;3.78;;;15.90;59.60;;;;;;10447988;28;20060;-57
2023/03/09 08:30:00;;;;;;;10.48;4.13;;;16.00;59.70;;;;;;10446072;28;20484;-58
2023/03/09 08:35:01;;;;;;;6.18;3.30;;;15.90;59.70;;;;;;10448271;28;20071;-58
2023/03/09 08:40:02;;;;;;;6.35;3.00;;;15.90;59.60;;;;;;10448344;28;20017;-58
2023/03/09 08:45:05;;;;;;;5.63;3.67;;;15.90;59.70;;;;;;10450873;28;20034;-57
2023/03/09 08:50:06;;;;;;;3.58;2.67;;;15.90;59.60;;;;;;10427523;28;20016;-58
2023/03/09 08:55:08;;;;;;;7.20;2.80;;;15.90;59.50;;;;;;10447989;28;20040;-57
2023/03/09 09:00:10;;;;;;;5.38;3.10;;;15.90;59.50;;;;;;10447726;28;20031;-57
2023/03/09 09:05:11;;;;;;;7.05;4.20;;;15.80;59.60;;;;;;10449078;28;20053;-57
2023/03/09 09:10:12;;;;;;;6.13;3.42;;;15.90;59.40;;;;;;10447506;28;20068;-58
2023/03/09 09:15:15;;;;;;;4.68;2.63;;;15.80;59.30;;;;;;10447411;28;20025;-57
2023/03/09 09:20:15;;;;;;;5.07;3.40;;;15.90;59.30;;;;;;10447370;28;20155;-57
2023/03/09 09:25:16;;;;;;;5.50;3.40;;;15.90;59.30;;;;;;10447254;28;20486;-58
2023/03/09 09:30:20;;;;;;;4.40;3.38;;;15.90;59.30;;;;;;10430031;28;20017;-57
2023/03/09 09:35:21;;;;;;;3.95;2.70;;;15.90;59.10;;;;;;10446569;28;20124;-58
2023/03/09 09:40:22;;;;;;;5.70;3.35;;;15.90;59.20;;;;;;10446539;28;20013;-57
2023/03/09 09:45:33;;;;;;;5.20;3.53;;;15.90;59.10;;;;;;10446117;28;20074;-58
2023/03/09 09:50:59;;;;;;;6.43;3.45;;;15.90;59.30;;;;;;10432811;28;20836;-56
2023/03/09 09:56:02;;;;;;;5.93;3.00;;;15.90;59.20;;;;;;10445215;28;20078;-57
2023/03/09 10:01:24;;;;;;;5.53;3.20;;;15.80;59.70;;;;;;10429105;28;20100;-57
2023/03/09 10:06:28;;;;;;;5.20;3.13;;;15.80;59.20;;;;;;10445799;28;20083;-57
2023/03/09 10:11:43;;;;;;;4.07;2.97;;;15.90;58.90;;;;;;10445567;28;20037;-58
2023/03/09 10:16:59;;;;;;;7.28;3.55;;;15.90;58.90;;;;;;10444651;28;20033;-57
2023/03/09 10:22:09;;;;;;;5.50;2.92;;;16.00;58.80;;;;;;10444092;28;20016;-57
2023/03/09 10:27:40;;;;;;;5.13;2.83;;;15.90;58.90;;;;;;10445028;28;20017;-57
2023/03/09 10:32:57;;;;;;;3.63;2.28;;;15.90;58.90;;;;;;10446097;28;20116;-58
2023/03/09 10:37:58;;;;;;;3.63;2.58;;;15.90;59.20;;;;;;10444253;28;20194;-58
2023/03/09 10:43:00;;;;;;;4.22;2.75;;;15.80;59.10;;;;;;10442120;28;20029;-58
2023/03/09 10:48:06;;;;;;;4.30;3.13;;;15.90;59.00;;;;;;10442342;28;20716;-58
2023/03/09 10:53:41;;;;;;;3.03;1.80;;;15.90;59.10;;;;;;10458782;28;20132;-58
2023/03/09 10:58:42;;;;;;;3.97;2.85;;;15.80;59.20;;;;;;10444612;28;20025;-58
2023/03/09 11:03:43;;;;;;;2.80;1.95;;;15.70;59.70;;;;;;10446593;28;20106;-59
2023/03/09 11:08:57;;;;;;;3.47;2.30;;;15.80;59.60;;;;;;10435611;28;20080;-58
2023/03/09 11:13:57;;;;;;;4.72;2.58;;;15.80;59.20;;;;;;10453568;28;20018;-58
2023/03/09 11:19:12;;;;;;;3.95;2.58;;;15.80;59.00;;;;;;10452187;28;20021;-58
2023/03/09 11:24:14;;;;;;;4.43;2.63;;;15.90;58.90;;;;;;10450862;28;20013;-58
2023/03/09 11:29:38;;;;;;;4.50;2.50;;;15.90;58.80;;;;;;10450272;28;20027;-57
2023/03/09 11:34:43;;;;;;;3.83;2.70;;;16.00;58.80;;;;;;10449917;28;20060;-59
2023/03/09 11:40:12;;;;;;;3.63;2.03;;;16.00;58.90;;;;;;10446272;28;20035;-59
2023/03/09 11:45:18;;;;;;;4.68;2.72;;;15.90;59.20;;;;;;10448031;28;20028;-58
2023/03/09 11:50:27;;;;;;;4.07;2.17;;;15.90;59.50;;;;;;10438771;28;20107;-60
2023/03/09 11:55:42;;;;;;;2.72;1.80;;;15.80;59.50;;;;;;10450643;28;20033;-59
2023/03/09 12:00:47;;;;;;;3.22;2.30;;;16.00;59.00;;;;;;10432562;28;20021;-60
2023/03/09 12:05:55;;;;;;;4.05;2.25;;;16.00;58.80;;;;;;10449814;28;20021;-60
2023/03/09 12:11:19;;;;;;;2.88;2.05;;;16.00;58.90;;;;;;10441228;28;20032;-59
2023/03/09 12:16:40;;;;;;;2.28;1.75;;;16.00;59.50;;;;;;10447082;28;20037;-59
2023/03/09 12:21:50;;;;;;;4.00;2.30;;;15.90;59.00;;;;;;10433733;28;20020;-60
2023/03/09 12:27:02;;;;;;;;;;;15.90;59.10;;;;;;10422392;28;20029;-59
2023/03/09 12:32:21;;;;;;;4.60;2.30;;;16.00;59.00;;;;;;10450493;28;19901;-59
2023/03/09 12:37:28;;;;;;;3.25;2.38;;;15.90;59.00;;;;;;10448706;28;20145;-59
2023/03/09 12:42:38;;;;;;;3.38;2.35;;;15.90;59.20;;;;;;10438845;28;20024;-59
2023/03/09 12:47:52;;;;;;;3.38;2.10;;;15.90;59.10;;;;;;10444551;28;20017;-59
2023/03/09 12:53:10;;;;;;;2.95;2.13;;;15.90;59.00;;;;;;10427589;28;20633;-59
2023/03/09 12:58:22;;;;;;;3.72;2.55;;;15.90;59.00;;;;;;10448258;28;20104;-59
2023/03/09 13:03:46;;;;;;;4.65;2.30;;;16.00;58.80;;;;;;10449225;28;20029;-59
2023/03/09 13:09:01;;;;;;;3.33;2.10;;;16.00;58.90;;;;;;10447586;28;20044;-59
2023/03/09 13:14:35;;;;;;;2.85;2.15;;;15.90;59.00;;;;;;10447302;28;20033;-59
2023/03/09 13:19:36;;;;;;;3.08;2.10;;;15.90;59.20;;;;;;10429167;28;20040;-59
2023/03/09 13:24:41;;;;;;;4.13;2.28;;;15.90;59.10;;;;;;10446409;28;20025;-59
2023/03/09 13:29:58;;;;;;;4.15;2.30;;;15.90;59.10;;;;;;10447631;28;20037;-59
2023/03/09 13:35:34;;;;;;;3.15;2.15;;;15.90;59.00;;;;;;10444378;28;20121;-59
2023/03/09 13:40:36;;;;;;;3.33;2.33;;;15.80;59.20;;;;;;10446396;28;20032;-59
2023/03/09 13:45:36;;;;;;;3.42;2.25;;;15.80;59.90;;;;;;10444160;28;20049;-59
2023/03/09 13:50:44;;;;;;;3.95;2.63;;;15.80;59.20;;;;;;10445753;28;20107;-60
2023/03/09 13:56:04;;;;;;;3.10;2.35;;;15.80;59.20;;;;;;10444088;28;20110;-59
2023/03/09 14:01:05;;;;;;;3.67;2.67;;;15.90;59.20;;;;;;10445269;28;20132;-58
2023/03/09 14:06:10;;;;;;;3.08;2.10;;;15.80;59.00;;;;;;10418616;28;20118;-59
2023/03/09 14:11:27;;;;;;;3.40;2.15;;;15.90;59.00;;;;;;10446696;28;20458;-59
2023/03/09 14:16:28;;;;;;;2.70;2.03;;;15.90;58.80;;;;;;10446363;28;20040;-60
2023/03/09 14:21:32;;;;;;;3.28;2.58;;;15.90;58.80;;;;;;10445170;28;20479;-59
2023/03/09 14:26:33;;;;;;;4.28;2.83;;;15.90;58.80;;;;;;10445005;28;20357;-60
2023/03/09 14:31:34;;;;;;;3.42;2.00;;;15.90;58.80;;;;;;10436302;28;20121;-60
2023/03/09 14:36:49;;;;;;;2.78;2.45;;;15.80;58.90;;;;;;10445342;28;20164;-59
2023/03/09 14:42:17;;;;;;;2.85;2.05;;;15.90;58.90;;;;;;10444757;28;20059;-60
2023/03/09 14:47:20;;;;;;;3.38;2.00;;;15.90;58.70;;;;;;10433582;28;20048;-60
2023/03/09 14:52:23;;;;;;;3.05;2.20;;;16.00;58.60;;;;;;10459430;28;20108;-58
2023/03/09 14:57:24;;;;;;;3.25;2.08;;;15.90;58.70;;;;;;10446927;28;20029;-59
2023/03/09 15:02:25;;;;;;;3.78;2.17;;;15.90;58.80;;;;;;10443614;28;20029;-58
2023/03/09 15:07:25;;;;;;;2.40;1.83;;;15.90;58.70;;;;;;10441983;28;20047;-59
2023/03/09 15:12:27;;;;;;;3.72;2.25;;;15.90;58.70;;;;;;10426243;28;20501;-60
2023/03/09 15:17:28;;;;;;;3.15;2.58;;;15.80;59.00;;;;;;10435583;28;20021;-56
2023/03/09 15:22:28;;;;;;;2.90;2.03;;;15.90;58.70;;;;;;10420179;28;20017;-58
2023/03/09 15:27:29;;;;;;;3.53;1.85;;;15.90;58.50;;;;;;10425562;28;20755;-59
2023/03/09 15:32:30;;;;;;;3.80;1.90;;;15.90;58.50;;;;;;10443994;28;20105;-58
2023/03/09 15:37:30;;;;;;;2.85;1.80;;;15.90;58.60;;;;;;10438898;28;20028;-58
2023/03/09 15:42:31;;;;;;;3.40;2.15;;;15.90;58.50;;;;;;10443864;28;20100;-58
2023/03/09 15:47:31;;;;;;;3.58;1.95;;;15.90;58.30;;;;;;10444444;28;20116;-58
2023/03/09 15:52:37;;;;;;;3.28;2.00;;;15.90;58.30;;;;;;10432472;28;20096;-59
2023/03/09 15:57:38;;;;;;;2.67;1.70;;;15.90;58.40;;;;;;10446192;28;20100;-58
2023/03/09 16:02:39;;;;;;;3.85;2.30;;;15.90;59.00;;;;;;10447954;28;20102;-58
2023/03/09 16:07:40;;;;;;;2.90;1.77;;;15.80;58.70;;;;;;10447303;28;20094;-57
2023/03/09 16:12:40;;;;;;;2.28;1.58;;;15.90;58.50;;;;;;10427546;28;20048;-58
2023/03/09 16:17:41;;;;;;;3.42;2.17;;;15.90;58.30;;;;;;10443807;28;20807;-58
2023/03/09 16:22:47;;;;;;;3.78;2.42;;;15.90;58.40;;;;;;10444756;28;20120;-58
2023/03/09 16:27:48;;;;;;;3.08;1.88;;;15.80;58.60;;;;;;10446706;28;20025;-58
2023/03/09 16:32:52;;;;;;;2.97;1.92;;;15.90;58.60;;;;;;10446862;28;20333;-59
2023/03/09 16:37:54;;;;;;;4.57;1.85;;;15.90;58.60;;;;;;10437794;28;20665;-57
2023/03/09 16:42:55;;;;;;;7.18;3.10;;;15.80;58.80;;;;;;10442661;28;20025;-58
2023/03/09 16:47:56;;;;;;;15.75;9.77;;;16.00;59.30;;;;;;10447699;28;20037;-59
2023/03/09 16:52:56;;;;;;;15.13;9.65;;;16.40;59.80;;;;;;10433914;28;20079;-57
2023/03/09 16:57:57;;;;;;;19.52;7.82;;;16.30;60.30;;;;;;10446720;28;20787;-58
2023/03/09 17:02:58;;;;;;;19.48;12.07;;;16.40;59.90;;;;;;10442537;28;20112;-56
2023/03/09 17:07:58;;;;;;;15.88;9.07;;;16.70;66.20;;;;;;10441123;28;20088;-58
2023/03/09 17:12:59;;;;;;;19.25;7.70;;;17.30;62.00;;;;;;10449294;28;20033;-56
2023/03/09 17:18:00;;;;;;;16.52;9.07;;;17.10;62.60;;;;;;10449099;28;20056;-58
2023/03/09 17:23:00;;;;;;;15.38;8.35;;;16.90;62.70;;;;;;10448670;28;20453;-57
2023/03/09 17:28:02;;;;;;;20.45;7.95;;;16.70;63.00;;;;;;10447663;28;20102;-58
2023/03/09 17:33:03;;;;;;;19.30;8.52;;;16.60;63.30;;;;;;10447960;28;20040;-59
2023/03/09 17:38:04;;;;;;;15.65;7.88;;;16.50;63.70;;;;;;10433732;28;20013;-58
2023/03/09 17:43:05;;;;;;;21.02;6.88;;;16.40;64.20;;;;;;10446079;28;20715;-58
2023/03/09 17:48:06;;;;;;;35.97;7.88;;;16.20;64.10;;;;;;10445119;28;20513;-57
2023/03/09 17:53:07;;;;;;;25.15;7.93;;;16.00;63.80;;;;;;10446750;28;20041;-57
2023/03/09 17:58:08;;;;;;;26.23;8.75;;;16.00;64.30;;;;;;10446204;28;20117;-57
2023/03/09 18:03:08;;;;;;;22.95;7.63;;;15.90;64.10;;;;;;10429420;28;20063;-57
2023/03/09 18:08:09;;;;;;;18.80;6.72;;;15.80;64.10;;;;;;10447218;28;20127;-57
2023/03/09 18:13:12;;;;;;;26.58;7.70;;;15.70;64.10;;;;;;10445939;28;20077;-57
2023/03/09 18:18:12;;;;;;;13.65;5.28;;;15.60;64.30;;;;;;10439243;28;20117;-57
2023/03/09 18:23:13;;;;;;;17.02;6.07;;;15.50;64.40;;;;;;10462204;28;20043;-59
2023/03/09 18:28:14;;;;;;;16.27;5.50;;;15.50;64.40;;;;;;10445659;28;20104;-59
2023/03/09 18:33:14;;;;;;;14.57;5.45;;;15.50;63.80;;;;;;10446749;28;20116;-57
2023/03/09 18:38:15;;;;;;;15.85;5.75;;;15.60;63.70;;;;;;10445083;28;20021;-58
2023/03/09 18:43:16;;;;;;;14.75;4.82;;;15.60;63.50;;;;;;10445455;28;20435;-59
2023/03/09 18:48:17;;;;;;;13.90;4.57;;;15.60;63.50;;;;;;10435634;28;20118;-58
2023/03/09 18:53:17;;;;;;;10.18;4.38;;;15.60;63.10;;;;;;10451794;28;20036;-59
2023/03/09 18:58:19;;;;;;;13.23;4.13;;;15.70;63.00;;;;;;10425988;28;20104;-59
2023/03/09 19:03:20;;;;;;;8.57;4.00;;;15.70;62.80;;;;;;10443905;28;20534;-57
2023/03/09 19:08:21;;;;;;;15.57;4.80;;;15.70;62.70;;;;;;10417632;28;20541;-58
2023/03/09 19:13:22;;;;;;;10.82;3.80;;;15.70;62.50;;;;;;10438656;28;20028;-58
2023/03/09 19:18:23;;;;;;;10.10;4.15;;;15.70;62.40;;;;;;10443966;28;20059;-59
2023/03/09 19:23:24;;;;;;;8.00;3.53;;;15.70;62.30;;;;;;10444863;28;20032;-58
2023/03/09 19:28:27;;;;;;;10.02;4.32;;;15.70;62.00;;;;;;10435249;28;20036;-59
2023/03/09 19:33:28;;;;;;;8.13;2.65;;;15.70;62.00;;;;;;10451420;28;20642;-59
2023/03/09 19:38:29;;;;;;;8.70;3.65;;;15.70;61.90;;;;;;10451112;28;20036;-59
2023/03/09 19:43:31;;;;;;;6.43;2.60;;;15.80;61.80;;;;;;10433013;28;20492;-59
2023/03/09 19:48:33;;;;;;;5.57;2.60;;;15.80;61.40;;;;;;10451780;28;20118;-59
2023/03/09 19:53:41;;;;;;;9.65;3.60;;;16.00;61.00;;;;;;10434203;28;20029;-55
2023/03/09 19:58:43;;;;;;;6.90;2.78;;;15.90;61.00;;;;;;10451022;28;20021;-56
2023/03/09 20:03:45;;;;;;;7.35;3.28;;;16.00;61.30;;;;;;10448993;28;20606;-57
2023/03/09 20:08:46;;;;;;;3.90;2.78;;;16.10;61.40;;;;;;10449570;28;20045;-58
2023/03/09 20:13:53;;;;;;;9.27;3.33;;;16.10;61.50;;;;;;10449260;28;20029;-59
2023/03/09 20:18:58;;;;;;;5.90;2.80;;;16.10;61.80;;;;;;10448160;28;20025;-58
2023/03/09 20:24:01;;;;;;;6.03;2.75;;;16.00;62.20;;;;;;10441138;28;20024;-56
2023/03/09 20:29:03;;;;;;;7.18;2.60;;;16.00;61.80;;;;;;10444137;28;20468;-56
2023/03/09 20:34:06;;;;;;;6.18;2.38;;;16.00;61.80;;;;;;10449345;28;20040;-57
2023/03/09 20:39:08;;;;;;;7.05;2.03;;;15.90;62.00;;;;;;10448694;28;20024;-57
2023/03/09 20:44:09;;;;;;;4.28;2.47;;;15.80;62.20;;;;;;10427226;28;20078;-57
2023/03/09 20:49:10;;;;;;;5.13;2.22;;;15.70;62.40;;;;;;10448853;28;20464;-57
2023/03/09 20:54:11;;;;;;;3.65;1.83;;;15.60;62.60;;;;;;10438681;28;20021;-57
2023/03/09 20:59:13;;;;;;;4.35;2.10;;;15.50;62.70;;;;;;10463283;28;20096;-57
2023/03/09 21:04:15;;;;;;;7.45;4.18;;;15.50;62.90;;;;;;10432259;28;20475;-57
2023/03/09 21:09:18;;;;;;;6.10;2.50;;;15.40;63.00;;;;;;10448036;28;20138;-57
2023/03/09 21:14:20;;;;;;;2.75;1.95;;;15.30;63.10;;;;;;10448305;28;20049;-57
2023/03/09 21:19:22;;;;;;;4.03;1.85;;;15.30;63.20;;;;;;10449575;28;20024;-57
2023/03/09 21:24:23;;;;;;;5.05;2.15;;;15.20;63.20;;;;;;10447821;28;20044;-57
2023/03/09 21:29:24;;;;;;;3.35;2.05;;;15.20;63.30;;;;;;10449184;28;20464;-58
2023/03/09 21:34:24;;;;;;;4.57;1.60;;;15.10;63.30;;;;;;10447571;28;20021;-56
2023/03/09 21:39:26;;;;;;;2.92;1.73;;;15.00;63.40;;;;;;10446844;28;20024;-57
2023/03/09 21:44:27;;;;;;;4.88;1.65;;;15.00;63.50;;;;;;10448097;28;20436;-57
2023/03/09 21:49:28;;;;;;;2.42;1.80;;;15.00;63.50;;;;;;10434079;28;20025;-57
2023/03/09 21:54:29;;;;;;;6.30;2.15;;;15.00;63.70;;;;;;10433680;28;20033;-55
2023/03/09 21:59:32;;;;;;;2.13;1.55;;;14.90;63.70;;;;;;10446347;28;20021;-56
2023/03/09 22:04:35;;;;;;;3.63;1.52;;;14.90;63.70;;;;;;10446283;28;20466;-57
2023/03/09 22:09:35;;;;;;;2.65;1.52;;;14.80;63.60;;;;;;10446223;28;20092;-56
2023/03/09 22:14:36;;;;;;;4.13;1.92;;;14.80;63.70;;;;;;10445810;28;20119;-55
2023/03/09 22:19:37;;;;;;;3.25;2.00;;;14.80;63.80;;;;;;10429177;28;20025;-56
2023/03/09 22:24:38;;;;;;;4.25;2.05;;;14.70;63.70;;;;;;10441151;28;20029;-58
2023/03/09 22:29:38;;;;;;;2.70;1.80;;;14.70;63.90;;;;;;10444864;28;20045;-57
2023/03/09 22:34:39;;;;;;;2.17;1.20;;;14.70;63.90;;;;;;10428347;28;20678;-57
2023/03/09 22:39:39;;;;;;;4.20;1.45;;;14.70;64.00;;;;;;10446069;28;20088;-57
2023/03/09 22:44:40;;;;;;;3.60;1.40;;;14.60;63.90;;;;;;10446225;28;20090;-57
2023/03/09 22:49:41;;;;;;;3.88;2.13;;;14.60;64.00;;;;;;10415317;28;20029;-55
2023/03/09 22:54:45;;;;;;;2.30;1.30;;;14.60;63.90;;;;;;10444885;28;20074;-56
2023/03/09 22:59:46;;;;;;;2.33;1.30;;;14.60;64.00;;;;;;10448158;28;20017;-56
2023/03/09 23:04:48;;;;;;;1.77;1.27;;;14.50;64.00;;;;;;10452976;28;20032;-56
2023/03/09 23:09:49;;;;;;;3.50;1.60;;;14.50;63.90;;;;;;10431279;28;20073;-57
2023/03/09 23:14:52;;;;;;;3.25;1.58;;;14.50;64.00;;;;;;10452715;28;20124;-56
2023/03/09 23:19:52;;;;;;;2.70;1.52;;;14.40;64.00;;;;;;10451932;28;20695;-57
2023/03/09 23:24:53;;;;;;;3.38;1.50;;;14.50;64.10;;;;;;10453311;28;20040;-56
2023/03/09 23:29:54;;;;;;;2.55;1.58;;;14.40;64.10;;;;;;10451660;28;20583;-57
2023/03/09 23:34:54;;;;;;;3.28;1.35;;;14.40;64.10;;;;;;10453088;28;20037;-57
2023/03/09 23:39:55;;;;;;;2.20;1.10;;;14.40;64.10;;;;;;10451481;28;20176;-55
2023/03/09 23:44:56;;;;;;;3.60;1.88;;;14.40;64.20;;;;;;10445667;28;20102;-57
2023/03/09 23:49:57;;;;;;;2.40;1.02;;;14.40;64.20;;;;;;10451221;28;20017;-56
2023/03/09 23:55:00;;;;;;;5.15;1.45;;;14.40;64.10;;;;;;10450666;28;20560;-57
